createdAt,value
2023-05-16T00:01:35.575Z,98.68
2023-05-16T00:04:04.262Z,99.29
2023-05-16T00:06:31.931Z,98.11
2023-05-16T00:08:58.647Z,99.08
2023-05-16T00:11:25.003Z,98.30
2023-05-16T00:13:51.566Z,98.05
2023-05-16T00:16:18.175Z,97.50
2023-05-16T00:18:45.420Z,96.62
2023-05-16T00:21:12.074Z,96.74
2023-05-16T00:23:39.066Z,97.65
2023-05-16T00:26:05.489Z,97.46
2023-05-16T00:28:31.958Z,98.31
2023-05-16T00:30:58.343Z,98.83
2023-05-16T00:33:24.760Z,99.35
2023-05-16T00:35:51.689Z,97.99
2023-05-16T00:38:18.008Z,99.27
2023-05-16T00:40:44.322Z,98.95
2023-05-16T00:43:10.789Z,99.48
2023-05-16T00:45:37.152Z,99.68
2023-05-16T00:48:03.949Z,99.08
2023-05-16T00:50:30.448Z,99.46
2023-05-16T00:52:56.842Z,99.24
2023-05-16T00:55:23.425Z,99.62
2023-05-16T00:57:50.293Z,99.75
2023-05-16T01:00:19.721Z,99.39
2023-05-16T01:02:47.378Z,99.67
2023-05-16T01:05:13.884Z,100.00
2023-05-16T01:07:40.366Z,100.00
2023-05-16T01:10:07.588Z,100.00
2023-05-16T01:12:38.207Z,100.00
2023-05-16T01:15:13.700Z,100.00
2023-05-16T01:17:53.108Z,100.00
2023-05-16T01:20:28.245Z,100.00
2023-05-16T01:23:28.469Z,100.00
2023-05-16T01:26:37.982Z,100.00
2023-05-16T01:29:05.400Z,100.00
2023-05-16T01:31:31.965Z,100.00
2023-05-16T01:33:58.376Z,100.00
2023-05-16T01:36:33.431Z,100.00
2023-05-16T01:39:32.488Z,100.00
2023-05-16T01:42:12.594Z,100.00
2023-05-16T01:45:08.459Z,100.00
2023-05-16T01:47:38.220Z,100.00
2023-05-16T01:50:32.421Z,100.00
2023-05-16T01:53:03.641Z,100.00
2023-05-16T01:55:47.789Z,100.00
2023-05-16T01:58:15.865Z,100.00
2023-05-16T02:00:42.664Z,100.00
2023-05-16T02:03:09.257Z,100.00
2023-05-16T02:05:35.987Z,100.00
2023-05-16T02:08:02.969Z,100.00
2023-05-16T02:10:29.399Z,100.00
2023-05-16T02:12:55.941Z,100.00
2023-05-16T02:15:22.288Z,100.00
2023-05-16T02:17:48.895Z,100.00
2023-05-16T02:20:15.553Z,100.00
2023-05-16T02:22:47.069Z,100.00
2023-05-16T02:25:15.470Z,100.00
2023-05-16T02:27:43.100Z,100.00
2023-05-16T02:30:11.870Z,100.00
2023-05-16T02:32:41.586Z,100.00
2023-05-16T02:35:08.320Z,100.00
2023-05-16T02:37:34.763Z,100.00
2023-05-16T02:40:01.121Z,100.00
2023-05-16T02:42:28.012Z,100.00
2023-05-16T02:44:54.393Z,100.00
2023-05-16T02:47:20.986Z,100.00
2023-05-16T02:49:47.530Z,100.00
2023-05-16T02:52:13.970Z,100.00
2023-05-16T02:54:40.456Z,100.00
2023-05-16T02:57:06.874Z,100.00
2023-05-16T02:59:33.256Z,100.00
2023-05-16T03:01:59.774Z,100.00
2023-05-16T03:04:26.215Z,100.00
2023-05-16T03:06:52.649Z,100.00
2023-05-16T03:09:19.425Z,100.00
2023-05-16T03:11:46.492Z,100.00
2023-05-16T03:14:12.840Z,100.00
2023-05-16T03:16:41.491Z,100.00
2023-05-16T03:19:07.928Z,100.00
2023-05-16T03:21:34.275Z,100.00
2023-05-16T03:24:02.613Z,100.00
2023-05-16T03:26:29.031Z,100.00
2023-05-16T03:28:55.510Z,100.00
2023-05-16T03:31:21.908Z,100.00
2023-05-16T03:33:48.242Z,100.00
2023-05-16T03:36:14.694Z,100.00
2023-05-16T03:38:41.092Z,100.00
2023-05-16T03:41:07.430Z,100.00
2023-05-16T03:43:33.762Z,100.00
2023-05-16T03:46:01.828Z,100.00
2023-05-16T03:48:28.172Z,100.00
2023-05-16T03:50:54.541Z,100.00
2023-05-16T03:53:20.918Z,100.00
2023-05-16T03:55:48.749Z,100.00
2023-05-16T03:58:16.275Z,100.00
2023-05-16T04:00:42.616Z,100.00
2023-05-16T04:03:09.017Z,100.00
2023-05-16T04:05:35.634Z,100.00
2023-05-16T04:08:02.075Z,100.00
2023-05-16T04:10:28.493Z,100.00
2023-05-16T04:12:54.832Z,100.00
2023-05-16T04:15:21.299Z,100.00
2023-05-16T04:17:47.837Z,100.00
2023-05-16T04:20:14.236Z,100.00
2023-05-16T04:22:40.613Z,100.00
2023-05-16T04:25:07.549Z,100.00
2023-05-16T04:27:33.896Z,100.00
2023-05-16T04:30:00.377Z,100.00
2023-05-16T04:32:28.888Z,100.00
2023-05-16T04:34:55.273Z,100.00
2023-05-16T04:37:22.325Z,100.00
2023-05-16T04:39:48.692Z,100.00
2023-05-16T04:42:15.062Z,100.00
2023-05-16T04:44:42.318Z,100.00
2023-05-16T04:47:09.197Z,100.00
2023-05-16T04:49:35.597Z,100.00
2023-05-16T04:52:02.215Z,100.00
2023-05-16T04:54:28.597Z,100.00
2023-05-16T04:56:54.986Z,100.00
2023-05-16T04:59:21.766Z,100.00
2023-05-16T05:01:48.332Z,100.00
2023-05-16T05:04:14.801Z,100.00
2023-05-16T05:06:41.133Z,99.72
2023-05-16T05:09:07.545Z,100.00
2023-05-16T05:11:34.026Z,99.43
2023-05-16T05:14:00.366Z,99.11
2023-05-16T05:16:27.034Z,99.02
2023-05-16T05:18:53.503Z,98.61
2023-05-16T05:21:21.060Z,98.13
2023-05-16T05:23:49.614Z,97.25
2023-05-16T05:26:16.039Z,98.13
2023-05-16T05:28:47.790Z,97.24
2023-05-16T05:31:17.542Z,97.39
2023-05-16T05:33:44.039Z,96.34
2023-05-16T05:36:10.548Z,96.77
2023-05-16T05:38:37.180Z,96.20
2023-05-16T05:41:04.104Z,96.06
2023-05-16T05:43:30.545Z,95.70
2023-05-16T05:45:56.979Z,95.43
2023-05-16T05:48:23.757Z,94.40
2023-05-16T05:50:50.112Z,94.63
2023-05-16T05:53:16.517Z,94.80
2023-05-16T05:55:43.052Z,95.39
2023-05-16T05:58:09.575Z,95.23
2023-05-16T06:00:36.360Z,94.91
2023-05-16T06:03:02.881Z,94.82
2023-05-16T06:05:29.562Z,95.21
2023-05-16T06:07:56.345Z,93.73
2023-05-16T06:10:23.122Z,93.20
2023-05-16T06:12:49.591Z,92.65
2023-05-16T06:15:16.072Z,91.92
2023-05-16T06:17:42.541Z,91.17
2023-05-16T06:20:09.290Z,91.81
2023-05-16T06:22:35.728Z,91.50
2023-05-16T06:25:02.138Z,91.48
2023-05-16T06:27:28.741Z,90.31
2023-05-16T06:29:55.254Z,91.48
2023-05-16T06:32:21.605Z,89.68
2023-05-16T06:34:48.878Z,90.05
2023-05-16T06:37:15.380Z,89.61
2023-05-16T06:39:41.769Z,89.35
2023-05-16T06:42:08.206Z,87.25
2023-05-16T06:44:34.657Z,86.24
2023-05-16T06:47:01.174Z,86.01
2023-05-16T06:49:27.629Z,86.84
2023-05-16T06:51:54.032Z,85.35
2023-05-16T06:54:20.690Z,82.43
2023-05-16T06:56:47.149Z,83.07
2023-05-16T06:59:13.611Z,82.47
2023-05-16T07:01:40.094Z,81.86
2023-05-16T07:04:06.735Z,79.83
2023-05-16T07:06:33.436Z,79.45
2023-05-16T07:08:59.861Z,76.94
2023-05-16T07:11:26.289Z,76.70
2023-05-16T07:13:52.724Z,76.18
2023-05-16T07:16:19.185Z,73.80
2023-05-16T07:18:45.796Z,75.31
2023-05-16T07:21:12.212Z,73.80
2023-05-16T07:23:38.568Z,67.48
2023-05-16T07:26:05.046Z,65.39
2023-05-16T07:28:31.489Z,71.01
2023-05-16T07:30:58.868Z,67.75
2023-05-16T07:33:25.723Z,64.35
2023-05-16T07:35:55.980Z,62.54
2023-05-16T07:38:27.580Z,71.74
2023-05-16T07:40:54.052Z,73.09
2023-05-16T07:43:20.795Z,69.70
2023-05-16T07:45:47.233Z,65.43
2023-05-16T07:48:13.689Z,67.85
2023-05-16T07:50:40.104Z,68.46
2023-05-16T07:53:06.500Z,68.73
2023-05-16T07:55:32.931Z,65.96
2023-05-16T07:57:59.420Z,62.92
2023-05-16T08:00:25.907Z,66.51
2023-05-16T08:02:52.916Z,66.86
2023-05-16T08:05:19.478Z,75.29
2023-05-16T08:07:46.057Z,79.57
2023-05-16T08:10:13.599Z,83.24
2023-05-16T08:12:40.228Z,85.47
2023-05-16T08:15:07.466Z,89.33
2023-05-16T08:17:34.281Z,90.37
2023-05-16T08:20:01.853Z,89.74
2023-05-16T08:22:28.292Z,80.02
2023-05-16T08:24:57.798Z,68.35
2023-05-16T08:27:24.688Z,66.05
2023-05-16T08:29:51.197Z,61.08
2023-05-16T08:32:17.695Z,60.27
2023-05-16T08:34:44.126Z,60.52
2023-05-16T08:37:10.772Z,56.21
2023-05-16T08:39:39.037Z,53.20
2023-05-16T08:42:05.984Z,56.83
2023-05-16T08:44:32.568Z,62.98
2023-05-16T08:47:07.361Z,64.33
2023-05-16T08:49:35.223Z,68.13
2023-05-16T08:52:03.278Z,75.00
2023-05-16T08:54:30.213Z,76.98
2023-05-16T08:56:58.235Z,81.17
2023-05-16T08:59:25.039Z,69.69
2023-05-16T09:01:51.654Z,61.75
2023-05-16T09:04:18.414Z,55.48
2023-05-16T09:06:45.392Z,52.70
2023-05-16T09:09:12.953Z,61.27
2023-05-16T09:11:39.749Z,60.46
2023-05-16T09:14:06.246Z,62.36
2023-05-16T09:16:32.744Z,56.89
2023-05-16T09:19:00.695Z,59.91
2023-05-16T09:21:37.080Z,56.45
2023-05-16T09:24:08.661Z,57.03
2023-05-16T09:26:37.392Z,60.17
2023-05-16T09:29:13.622Z,57.75
2023-05-16T09:31:40.759Z,55.06
2023-05-16T09:34:09.232Z,52.27
2023-05-16T09:36:36.693Z,51.76
2023-05-16T09:39:03.445Z,48.77
2023-05-16T09:41:34.990Z,52.30
2023-05-16T09:44:05.966Z,48.42
2023-05-16T09:46:34.836Z,44.83
2023-05-16T09:49:01.440Z,43.34
2023-05-16T09:51:28.622Z,42.82
2023-05-16T09:53:55.108Z,46.67
2023-05-16T09:56:21.488Z,44.21
2023-05-16T09:58:50.023Z,42.52
2023-05-16T10:01:16.656Z,41.48
2023-05-16T10:03:43.389Z,37.61
2023-05-16T10:06:10.566Z,39.57
2023-05-16T10:08:38.351Z,39.48
2023-05-16T10:11:06.456Z,38.13
2023-05-16T10:13:35.766Z,46.53
2023-05-16T10:16:15.325Z,48.47
2023-05-16T10:18:42.673Z,47.50
2023-05-16T10:21:14.388Z,45.76
2023-05-16T10:23:42.744Z,47.49
2023-05-16T10:26:11.170Z,51.47
2023-05-16T10:28:37.794Z,42.56
2023-05-16T10:31:05.878Z,42.88
2023-05-16T10:33:32.933Z,44.10
2023-05-16T10:35:59.419Z,45.95
2023-05-16T10:38:26.749Z,49.37
2023-05-16T10:40:53.553Z,48.40
2023-05-16T10:43:28.014Z,44.74
2023-05-16T10:45:56.238Z,42.06
2023-05-16T10:48:33.859Z,43.04
2023-05-16T10:51:02.649Z,49.09
2023-05-16T10:53:28.964Z,50.17
2023-05-16T10:56:01.409Z,53.76
2023-05-16T10:58:38.049Z,49.26
2023-05-16T11:01:17.764Z,47.31
2023-05-16T11:03:59.914Z,46.62
2023-05-16T11:06:30.461Z,42.71
2023-05-16T11:09:13.265Z,42.17
2023-05-16T11:11:48.670Z,44.95
2023-05-16T11:14:37.339Z,49.77
2023-05-16T11:17:09.888Z,48.89
2023-05-16T11:19:59.050Z,49.96
2023-05-16T11:22:28.473Z,50.36
2023-05-16T11:25:07.537Z,50.01
2023-05-16T11:27:41.494Z,51.35
2023-05-16T11:30:10.651Z,51.96
2023-05-16T11:32:39.133Z,52.13
2023-05-16T11:35:08.883Z,52.18
2023-05-16T11:37:42.151Z,53.91
2023-05-16T11:40:11.228Z,54.62
2023-05-16T11:42:42.614Z,55.77
2023-05-16T11:45:12.516Z,55.59
2023-05-16T11:47:40.650Z,55.16
2023-05-16T11:50:11.720Z,56.76
2023-05-16T11:52:38.642Z,56.86
2023-05-16T11:55:06.876Z,57.56
2023-05-16T11:57:34.166Z,56.51
2023-05-16T12:00:11.222Z,58.97
2023-05-16T12:02:37.793Z,57.86
2023-05-16T12:05:10.806Z,58.88
2023-05-16T12:07:37.851Z,59.68
2023-05-16T12:10:08.790Z,60.33
2023-05-16T12:12:36.454Z,59.64
2023-05-16T12:15:04.673Z,58.38
2023-05-16T12:17:33.426Z,58.14
2023-05-16T12:20:00.696Z,57.90
2023-05-16T12:22:27.282Z,58.70
2023-05-16T12:24:53.660Z,57.81
2023-05-16T12:27:24.382Z,57.37
2023-05-16T12:29:50.942Z,59.43
2023-05-16T12:32:21.331Z,58.43
2023-05-16T12:34:52.077Z,60.76
2023-05-16T12:37:21.011Z,61.06
2023-05-16T12:39:48.121Z,60.74
2023-05-16T12:42:14.879Z,61.36
2023-05-16T12:44:45.606Z,61.29
2023-05-16T12:47:13.486Z,61.31
2023-05-16T12:49:47.790Z,62.48
2023-05-16T12:52:20.093Z,62.22
2023-05-16T12:54:47.988Z,60.50
2023-05-16T12:57:14.874Z,61.43
2023-05-16T12:59:41.248Z,61.42
2023-05-16T13:02:07.765Z,63.21
2023-05-16T13:04:34.270Z,65.12
2023-05-16T13:07:01.008Z,65.46
2023-05-16T13:09:30.316Z,64.93
2023-05-16T13:11:57.838Z,62.88
2023-05-16T13:14:24.268Z,62.33
2023-05-16T13:16:51.438Z,63.73
2023-05-16T13:19:18.031Z,61.93
2023-05-16T13:21:44.475Z,59.65
2023-05-16T13:24:10.878Z,60.58
2023-05-16T13:26:37.512Z,61.25
2023-05-16T13:29:03.944Z,62.58
2023-05-16T13:31:30.433Z,62.95
2023-05-16T13:33:56.904Z,63.17
2023-05-16T13:36:23.292Z,64.44
2023-05-16T13:38:49.667Z,65.36
2023-05-16T13:41:16.074Z,65.20
2023-05-16T13:43:42.520Z,65.49
2023-05-16T13:46:09.052Z,64.46
2023-05-16T13:48:35.584Z,64.11
2023-05-16T13:51:02.008Z,62.60
2023-05-16T13:53:28.393Z,59.60
2023-05-16T13:55:54.950Z,60.65
2023-05-16T13:58:21.338Z,60.51
2023-05-16T14:00:48.558Z,60.29
2023-05-16T14:03:15.360Z,62.13
2023-05-16T14:05:42.446Z,61.13
2023-05-16T14:08:08.909Z,63.04
2023-05-16T14:10:35.287Z,64.06
2023-05-16T14:13:01.796Z,64.70
2023-05-16T14:15:28.441Z,62.56
2023-05-16T14:17:55.098Z,62.66
2023-05-16T14:20:21.768Z,62.41
2023-05-16T14:22:48.289Z,63.27
2023-05-16T14:25:14.738Z,65.10
2023-05-16T14:27:41.345Z,63.29
2023-05-16T14:30:09.528Z,65.15
2023-05-16T14:32:36.210Z,63.63
2023-05-16T14:35:05.075Z,62.12
2023-05-16T14:37:31.521Z,61.93
2023-05-16T14:39:58.864Z,60.83
2023-05-16T14:42:25.325Z,61.48
2023-05-16T14:44:51.974Z,61.39
2023-05-16T14:47:18.415Z,63.58
2023-05-16T14:49:44.768Z,62.96
2023-05-16T14:52:11.212Z,64.93
2023-05-16T14:54:37.638Z,63.74
2023-05-16T14:57:04.735Z,62.44
2023-05-16T14:59:31.384Z,63.39
2023-05-16T15:01:57.830Z,62.63
2023-05-16T15:04:24.413Z,62.39
2023-05-16T15:06:50.905Z,60.07
2023-05-16T15:09:18.986Z,62.33
2023-05-16T15:11:45.948Z,61.44
2023-05-16T15:14:12.363Z,60.28
2023-05-16T15:16:39.019Z,62.37
2023-05-16T15:19:05.596Z,63.34
2023-05-16T15:21:32.469Z,60.34
2023-05-16T15:23:58.890Z,62.03
2023-05-16T15:26:25.264Z,59.96
2023-05-16T15:28:52.211Z,59.24
2023-05-16T15:31:18.579Z,59.78
2023-05-16T15:33:48.288Z,58.87
2023-05-16T15:36:15.098Z,59.53
2023-05-16T15:38:44.304Z,59.98
2023-05-16T15:41:22.419Z,61.10
2023-05-16T15:43:53.201Z,61.34
2023-05-16T15:46:19.809Z,61.77
2023-05-16T15:48:46.379Z,61.82
2023-05-16T15:51:13.386Z,61.95
2023-05-16T15:53:40.005Z,64.03
2023-05-16T15:56:06.983Z,63.59
2023-05-16T15:58:33.509Z,62.82
2023-05-16T16:00:59.928Z,63.76
2023-05-16T16:03:26.600Z,64.77
2023-05-16T16:05:53.497Z,63.51
2023-05-16T16:08:20.499Z,64.48
2023-05-16T16:10:47.348Z,65.05
2023-05-16T16:13:13.809Z,64.20
2023-05-16T16:15:42.139Z,65.17
2023-05-16T16:18:09.163Z,65.86
2023-05-16T16:20:35.632Z,66.54
2023-05-16T16:23:02.111Z,66.65
2023-05-16T16:25:28.726Z,66.45
2023-05-16T16:27:55.776Z,66.59
2023-05-16T16:30:22.200Z,66.93
2023-05-16T16:32:48.976Z,68.32
2023-05-16T16:35:15.768Z,68.51
2023-05-16T16:37:48.763Z,68.62
2023-05-16T16:40:21.171Z,70.49
2023-05-16T16:42:47.693Z,72.59
2023-05-16T16:45:14.317Z,72.85
2023-05-16T16:47:40.965Z,74.93
2023-05-16T16:50:08.379Z,75.27
2023-05-16T16:52:35.359Z,74.55
2023-05-16T16:55:02.140Z,74.18
2023-05-16T16:57:28.552Z,75.38
2023-05-16T16:59:54.986Z,75.16
2023-05-16T17:02:21.525Z,74.76
2023-05-16T17:04:47.996Z,75.02
2023-05-16T17:07:14.433Z,75.20
2023-05-16T17:09:42.275Z,74.83
2023-05-16T17:12:18.969Z,75.22
2023-05-16T17:14:47.608Z,75.84
2023-05-16T17:17:18.328Z,76.75
2023-05-16T17:19:47.628Z,76.85
2023-05-16T17:22:14.565Z,78.44
2023-05-16T17:24:41.115Z,78.29
2023-05-16T17:27:07.548Z,78.88
2023-05-16T17:29:34.075Z,80.06
2023-05-16T17:32:00.544Z,80.12
2023-05-16T17:34:27.142Z,79.96
2023-05-16T17:36:54.214Z,78.12
2023-05-16T17:39:20.775Z,78.24
2023-05-16T17:41:47.430Z,77.87
2023-05-16T17:44:13.823Z,78.18
2023-05-16T17:46:40.546Z,76.64
2023-05-16T17:49:07.959Z,75.49
2023-05-16T17:51:47.321Z,75.37
2023-05-16T17:54:13.913Z,76.10
2023-05-16T17:56:40.274Z,75.11
2023-05-16T17:59:06.671Z,74.75
2023-05-16T18:01:33.037Z,75.42
2023-05-16T18:03:59.722Z,75.40
2023-05-16T18:06:26.213Z,75.29
2023-05-16T18:08:52.567Z,74.43
2023-05-16T18:11:19.021Z,75.04
2023-05-16T18:13:46.380Z,74.97
2023-05-16T18:16:12.748Z,75.24
2023-05-16T18:18:39.387Z,75.67
2023-05-16T18:21:06.154Z,75.60
2023-05-16T18:23:36.103Z,76.48
2023-05-16T18:26:02.778Z,76.76
2023-05-16T18:28:29.723Z,76.83
2023-05-16T18:30:56.247Z,76.07
2023-05-16T18:33:22.711Z,77.03
2023-05-16T18:35:49.173Z,76.88
2023-05-16T18:38:28.241Z,77.28
2023-05-16T18:40:58.398Z,78.29
2023-05-16T18:43:24.908Z,77.67
2023-05-16T18:45:51.447Z,78.52
2023-05-16T18:48:18.100Z,78.66
2023-05-16T18:50:44.869Z,78.83
2023-05-16T18:53:11.238Z,79.35
2023-05-16T18:55:37.783Z,79.61
2023-05-16T18:58:04.224Z,79.79
2023-05-16T19:00:30.695Z,80.26
2023-05-16T19:02:57.216Z,80.70
2023-05-16T19:05:23.883Z,81.28
2023-05-16T19:07:50.469Z,82.10
2023-05-16T19:10:16.870Z,81.84
2023-05-16T19:12:46.687Z,81.73
2023-05-16T19:15:13.154Z,82.94
2023-05-16T19:17:41.531Z,82.82
2023-05-16T19:20:09.350Z,83.53
2023-05-16T19:22:36.013Z,83.69
2023-05-16T19:25:02.735Z,83.94
2023-05-16T19:27:29.252Z,84.39
2023-05-16T19:29:55.663Z,85.24
2023-05-16T19:32:22.171Z,86.09
2023-05-16T19:34:48.647Z,86.42
2023-05-16T19:37:15.318Z,87.48
2023-05-16T19:39:41.813Z,87.58
2023-05-16T19:42:08.361Z,86.59
2023-05-16T19:44:35.306Z,87.83
2023-05-16T19:47:01.693Z,87.98
2023-05-16T19:49:28.926Z,87.70
2023-05-16T19:51:55.454Z,87.68
2023-05-16T19:54:21.863Z,87.45
2023-05-16T19:56:48.284Z,86.28
2023-05-16T19:59:14.700Z,86.72
2023-05-16T20:04:12.658Z,87.88
2023-05-16T20:06:39.279Z,88.45
2023-05-16T20:09:06.242Z,89.46
2023-05-16T20:11:33.044Z,90.31
2023-05-16T20:14:00.150Z,90.73
2023-05-16T20:16:27.381Z,90.98
2023-05-16T20:18:53.976Z,91.15
2023-05-16T20:21:20.464Z,90.99
2023-05-16T20:23:46.869Z,91.35
2023-05-16T20:26:14.822Z,91.44
2023-05-16T20:28:41.965Z,91.27
2023-05-16T20:31:08.420Z,91.16
2023-05-16T20:33:34.838Z,91.00
2023-05-16T20:36:01.436Z,91.16
2023-05-16T20:38:27.821Z,91.49
2023-05-16T20:40:54.350Z,91.62
2023-05-16T20:43:20.759Z,91.16
2023-05-16T20:45:47.161Z,91.69
2023-05-16T20:48:14.025Z,92.46
2023-05-16T20:50:40.576Z,92.56
2023-05-16T20:53:07.147Z,92.02
2023-05-16T20:55:33.537Z,92.31
2023-05-16T20:58:00.534Z,92.74
2023-05-16T21:00:26.956Z,93.01
2023-05-16T21:02:53.436Z,93.40
2023-05-16T21:05:25.624Z,92.35
2023-05-16T21:08:01.363Z,93.17
2023-05-16T21:10:27.784Z,93.66
2023-05-16T21:12:54.360Z,94.26
2023-05-16T21:15:23.201Z,94.12
2023-05-16T21:17:50.074Z,94.67
2023-05-16T21:20:16.608Z,94.23
2023-05-16T21:22:43.050Z,94.54
2023-05-16T21:25:09.644Z,94.42
2023-05-16T21:27:36.082Z,94.95
2023-05-16T21:30:02.967Z,95.39
2023-05-16T21:32:32.395Z,95.39
2023-05-16T21:35:00.982Z,95.65
2023-05-16T21:37:27.695Z,94.92
2023-05-16T21:39:54.261Z,96.06
2023-05-16T21:42:21.190Z,96.96
2023-05-16T21:44:47.582Z,97.04
2023-05-16T21:47:14.010Z,94.78
2023-05-16T21:49:40.440Z,95.94
2023-05-16T21:52:07.582Z,95.53
2023-05-16T21:54:34.431Z,97.05
2023-05-16T21:57:00.887Z,97.83
2023-05-16T21:59:27.346Z,98.34
2023-05-16T22:01:53.764Z,97.81
2023-05-16T22:04:20.373Z,98.46
2023-05-16T22:06:46.930Z,98.49
2023-05-16T22:09:13.439Z,99.17
2023-05-16T22:11:40.049Z,99.57
2023-05-16T22:14:06.505Z,99.91
2023-05-16T22:16:32.953Z,99.62
2023-05-16T22:18:59.426Z,100.00
2023-05-16T22:21:25.942Z,100.00
2023-05-16T22:23:52.426Z,100.00
2023-05-16T22:26:18.817Z,100.00
2023-05-16T22:28:45.279Z,100.00
2023-05-16T22:31:11.638Z,100.00
2023-05-16T22:33:38.107Z,100.00
2023-05-16T22:36:04.959Z,100.00
2023-05-16T22:38:31.727Z,100.00
2023-05-16T22:40:58.253Z,100.00
2023-05-16T22:43:24.686Z,100.00
2023-05-16T22:45:51.540Z,100.00
2023-05-16T22:48:18.088Z,100.00
2023-05-16T22:50:44.593Z,100.00
2023-05-16T22:53:11.019Z,100.00
2023-05-16T22:55:37.448Z,100.00
2023-05-16T22:58:03.888Z,100.00
2023-05-16T23:00:30.326Z,100.00
2023-05-16T23:02:57.157Z,100.00
2023-05-16T23:05:23.797Z,100.00
2023-05-16T23:07:50.374Z,100.00
2023-05-16T23:10:16.877Z,100.00
2023-05-16T23:12:43.354Z,100.00
2023-05-16T23:15:10.446Z,100.00
2023-05-16T23:17:40.421Z,100.00
2023-05-16T23:20:07.650Z,100.00
2023-05-16T23:22:34.177Z,100.00
2023-05-16T23:25:00.615Z,100.00
2023-05-16T23:27:27.133Z,100.00
2023-05-16T23:29:53.546Z,100.00
2023-05-16T23:32:20.002Z,100.00
2023-05-16T23:34:46.537Z,100.00
2023-05-16T23:37:12.953Z,100.00
2023-05-16T23:39:39.403Z,100.00
2023-05-16T23:42:05.991Z,100.00
2023-05-16T23:44:33.468Z,100.00
2023-05-16T23:47:00.834Z,100.00
2023-05-16T23:49:27.280Z,100.00
2023-05-16T23:51:57.890Z,100.00
2023-05-16T23:54:27.730Z,100.00
2023-05-16T23:56:54.172Z,100.00
2023-05-16T23:59:20.653Z,100.00
